sensor_id;sensor_type;location;lat;lon;timestamp;P1;durP1;ratioP1;P2;durP2;ratioP2
8060;SDS011;4073;42.626;25.386;2022-09-09T00:02:00;8.97;;;8.03;;
8060;SDS011;4073;42.626;25.386;2022-09-09T00:04:34;7.93;;;7.23;;
8060;SDS011;4073;42.626;25.386;2022-09-09T00:12:40;6.53;;;5.40;;
8060;SDS011;4073;42.626;25.386;2022-09-09T00:15:11;6.33;;;5.77;;
8060;SDS011;4073;42.626;25.386;2022-09-09T00:20:16;6.83;;;5.50;;
8060;SDS011;4073;42.626;25.386;2022-09-09T00:23:12;6.30;;;5.70;;
8060;SDS011;4073;42.626;25.386;2022-09-09T00:25:42;5.90;;;5.40;;
8060;SDS011;4073;42.626;25.386;2022-09-09T00:28:19;6.37;;;5.77;;
8060;SDS011;4073;42.626;25.386;2022-09-09T00:30:47;7.33;;;6.30;;
8060;SDS011;4073;42.626;25.386;2022-09-09T00:33:13;6.60;;;6.00;;
8060;SDS011;4073;42.626;25.386;2022-09-09T00:35:53;7.87;;;5.40;;
8060;SDS011;4073;42.626;25.386;2022-09-09T00:41:09;7.57;;;5.43;;
8060;SDS011;4073;42.626;25.386;2022-09-09T00:43:43;7.47;;;6.63;;
8060;SDS011;4073;42.626;25.386;2022-09-09T00:52:10;6.67;;;6.07;;
8060;SDS011;4073;42.626;25.386;2022-09-09T00:57:25;7.37;;;5.70;;
8060;SDS011;4073;42.626;25.386;2022-09-09T01:00:01;7.30;;;6.73;;
8060;SDS011;4073;42.626;25.386;2022-09-09T01:02:49;11.40;;;7.57;;
8060;SDS011;4073;42.626;25.386;2022-09-09T01:05:48;8.30;;;7.50;;
8060;SDS011;4073;42.626;25.386;2022-09-09T01:11:07;8.90;;;8.07;;
8060;SDS011;4073;42.626;25.386;2022-09-09T01:13:40;8.60;;;7.87;;
8060;SDS011;4073;42.626;25.386;2022-09-09T01:16:10;9.10;;;8.30;;
8060;SDS011;4073;42.626;25.386;2022-09-09T01:18:37;11.33;;;9.07;;
8060;SDS011;4073;42.626;25.386;2022-09-09T01:26:56;9.33;;;8.43;;
8060;SDS011;4073;42.626;25.386;2022-09-09T01:29:26;8.57;;;7.87;;
8060;SDS011;4073;42.626;25.386;2022-09-09T01:34:20;8.83;;;8.03;;
8060;SDS011;4073;42.626;25.386;2022-09-09T01:36:57;8.20;;;7.40;;
8060;SDS011;4073;42.626;25.386;2022-09-09T01:39:27;8.33;;;7.63;;
8060;SDS011;4073;42.626;25.386;2022-09-09T01:41:53;7.80;;;7.13;;
8060;SDS011;4073;42.626;25.386;2022-09-09T01:44:20;10.63;;;7.17;;
8060;SDS011;4073;42.626;25.386;2022-09-09T01:46:48;8.43;;;7.63;;
8060;SDS011;4073;42.626;25.386;2022-09-09T01:49:13;10.07;;;7.33;;
8060;SDS011;4073;42.626;25.386;2022-09-09T01:51:39;9.60;;;7.07;;
8060;SDS011;4073;42.626;25.386;2022-09-09T01:54:07;7.23;;;6.57;;
8060;SDS011;4073;42.626;25.386;2022-09-09T02:02:13;7.30;;;6.60;;
8060;SDS011;4073;42.626;25.386;2022-09-09T02:07:51;8.60;;;6.53;;
8060;SDS011;4073;42.626;25.386;2022-09-09T02:10:30;7.10;;;6.40;;
8060;SDS011;4073;42.626;25.386;2022-09-09T02:13:07;7.00;;;6.40;;
8060;SDS011;4073;42.626;25.386;2022-09-09T02:15:43;6.67;;;5.83;;
8060;SDS011;4073;42.626;25.386;2022-09-09T02:18:16;9.07;;;5.83;;
8060;SDS011;4073;42.626;25.386;2022-09-09T02:20:48;7.17;;;6.57;;
8060;SDS011;4073;42.626;25.386;2022-09-09T02:23:16;6.33;;;5.83;;
8060;SDS011;4073;42.626;25.386;2022-09-09T02:25:42;6.20;;;5.70;;
8060;SDS011;4073;42.626;25.386;2022-09-09T02:28:11;6.63;;;6.03;;
8060;SDS011;4073;42.626;25.386;2022-09-09T02:30:40;7.80;;;7.10;;
8060;SDS011;4073;42.626;25.386;2022-09-09T02:33:12;7.47;;;6.83;;
8060;SDS011;4073;42.626;25.386;2022-09-09T02:35:39;8.53;;;7.63;;
8060;SDS011;4073;42.626;25.386;2022-09-09T02:38:08;8.20;;;7.50;;
8060;SDS011;4073;42.626;25.386;2022-09-09T02:40:37;8.27;;;7.57;;
8060;SDS011;4073;42.626;25.386;2022-09-09T02:43:03;7.67;;;6.97;;
8060;SDS011;4073;42.626;25.386;2022-09-09T02:45:31;7.70;;;6.60;;
8060;SDS011;4073;42.626;25.386;2022-09-09T02:54:20;9.30;;;7.13;;
8060;SDS011;4073;42.626;25.386;2022-09-09T02:56:51;7.87;;;7.17;;
8060;SDS011;4073;42.626;25.386;2022-09-09T02:59:21;7.63;;;7.03;;
8060;SDS011;4073;42.626;25.386;2022-09-09T03:01:49;8.60;;;7.70;;
8060;SDS011;4073;42.626;25.386;2022-09-09T03:04:15;9.10;;;8.20;;
8060;SDS011;4073;42.626;25.386;2022-09-09T03:06:40;9.73;;;8.20;;
8060;SDS011;4073;42.626;25.386;2022-09-09T03:09:06;9.70;;;8.23;;
8060;SDS011;4073;42.626;25.386;2022-09-09T03:11:33;8.57;;;7.67;;
8060;SDS011;4073;42.626;25.386;2022-09-09T03:13:58;8.90;;;7.97;;
8060;SDS011;4073;42.626;25.386;2022-09-09T03:16:23;8.50;;;7.63;;
8060;SDS011;4073;42.626;25.386;2022-09-09T03:18:49;8.70;;;7.90;;
8060;SDS011;4073;42.626;25.386;2022-09-09T03:21:14;8.83;;;7.70;;
8060;SDS011;4073;42.626;25.386;2022-09-09T03:23:41;8.63;;;7.73;;
8060;SDS011;4073;42.626;25.386;2022-09-09T03:26:06;10.90;;;9.03;;
8060;SDS011;4073;42.626;25.386;2022-09-09T03:28:32;10.13;;;8.90;;
8060;SDS011;4073;42.626;25.386;2022-09-09T03:30:59;10.20;;;9.20;;
8060;SDS011;4073;42.626;25.386;2022-09-09T03:33:25;9.27;;;8.37;;
8060;SDS011;4073;42.626;25.386;2022-09-09T03:35:51;9.83;;;8.97;;
8060;SDS011;4073;42.626;25.386;2022-09-09T03:38:16;9.03;;;8.23;;
8060;SDS011;4073;42.626;25.386;2022-09-09T03:40:49;10.33;;;9.37;;
8060;SDS011;4073;42.626;25.386;2022-09-09T03:43:16;8.50;;;7.77;;
8060;SDS011;4073;42.626;25.386;2022-09-09T03:45:45;10.27;;;8.50;;
8060;SDS011;4073;42.626;25.386;2022-09-09T03:48:13;9.43;;;8.47;;
8060;SDS011;4073;42.626;25.386;2022-09-09T03:50:50;9.77;;;8.97;;
8060;SDS011;4073;42.626;25.386;2022-09-09T03:53:19;8.43;;;7.63;;
8060;SDS011;4073;42.626;25.386;2022-09-09T03:55:46;8.53;;;7.73;;
8060;SDS011;4073;42.626;25.386;2022-09-09T03:58:13;10.63;;;9.53;;
8060;SDS011;4073;42.626;25.386;2022-09-09T04:00:40;14.27;;;10.80;;
8060;SDS011;4073;42.626;25.386;2022-09-09T04:03:10;12.47;;;10.50;;
8060;SDS011;4073;42.626;25.386;2022-09-09T04:05:36;25.40;;;14.23;;
8060;SDS011;4073;42.626;25.386;2022-09-09T04:08:06;14.33;;;11.07;;
8060;SDS011;4073;42.626;25.386;2022-09-09T04:10:32;13.67;;;10.33;;
8060;SDS011;4073;42.626;25.386;2022-09-09T04:12:58;12.60;;;9.50;;
8060;SDS011;4073;42.626;25.386;2022-09-09T04:15:24;9.97;;;8.97;;
8060;SDS011;4073;42.626;25.386;2022-09-09T04:17:50;9.57;;;8.23;;
8060;SDS011;4073;42.626;25.386;2022-09-09T04:20:16;9.57;;;7.87;;
8060;SDS011;4073;42.626;25.386;2022-09-09T04:22:41;10.43;;;7.63;;
8060;SDS011;4073;42.626;25.386;2022-09-09T04:25:07;9.07;;;8.03;;
8060;SDS011;4073;42.626;25.386;2022-09-09T04:27:33;10.83;;;8.00;;
8060;SDS011;4073;42.626;25.386;2022-09-09T04:29:58;10.30;;;7.80;;
8060;SDS011;4073;42.626;25.386;2022-09-09T04:32:23;11.43;;;8.10;;
8060;SDS011;4073;42.626;25.386;2022-09-09T04:34:52;9.53;;;8.67;;
8060;SDS011;4073;42.626;25.386;2022-09-09T04:37:17;8.80;;;8.00;;
8060;SDS011;4073;42.626;25.386;2022-09-09T04:39:43;9.47;;;8.10;;
8060;SDS011;4073;42.626;25.386;2022-09-09T04:42:08;11.40;;;7.67;;
8060;SDS011;4073;42.626;25.386;2022-09-09T04:44:34;8.10;;;7.30;;
8060;SDS011;4073;42.626;25.386;2022-09-09T04:46:59;7.93;;;7.13;;
8060;SDS011;4073;42.626;25.386;2022-09-09T04:49:24;9.50;;;7.17;;
8060;SDS011;4073;42.626;25.386;2022-09-09T04:51:50;9.20;;;7.90;;
8060;SDS011;4073;42.626;25.386;2022-09-09T04:54:16;8.73;;;7.90;;
8060;SDS011;4073;42.626;25.386;2022-09-09T04:56:42;9.23;;;8.43;;
8060;SDS011;4073;42.626;25.386;2022-09-09T04:59:08;8.93;;;8.00;;
8060;SDS011;4073;42.626;25.386;2022-09-09T05:01:35;8.60;;;7.70;;
8060;SDS011;4073;42.626;25.386;2022-09-09T05:04:01;12.27;;;7.70;;
8060;SDS011;4073;42.626;25.386;2022-09-09T05:06:27;7.97;;;7.27;;
8060;SDS011;4073;42.626;25.386;2022-09-09T05:08:56;8.43;;;7.63;;
8060;SDS011;4073;42.626;25.386;2022-09-09T05:11:24;9.63;;;7.87;;
8060;SDS011;4073;42.626;25.386;2022-09-09T05:13:51;9.27;;;8.40;;
8060;SDS011;4073;42.626;25.386;2022-09-09T05:16:18;8.17;;;7.47;;
8060;SDS011;4073;42.626;25.386;2022-09-09T05:18:44;8.27;;;7.57;;
8060;SDS011;4073;42.626;25.386;2022-09-09T05:21:16;8.70;;;7.83;;
8060;SDS011;4073;42.626;25.386;2022-09-09T05:23:42;9.00;;;8.10;;
8060;SDS011;4073;42.626;25.386;2022-09-09T05:26:09;8.90;;;8.10;;
8060;SDS011;4073;42.626;25.386;2022-09-09T05:28:38;8.87;;;7.97;;
8060;SDS011;4073;42.626;25.386;2022-09-09T05:31:05;9.33;;;8.30;;
8060;SDS011;4073;42.626;25.386;2022-09-09T05:33:33;8.80;;;7.90;;
8060;SDS011;4073;42.626;25.386;2022-09-09T05:36:03;8.57;;;7.73;;
8060;SDS011;4073;42.626;25.386;2022-09-09T05:38:30;9.17;;;7.30;;
8060;SDS011;4073;42.626;25.386;2022-09-09T05:40:58;11.20;;;7.33;;
8060;SDS011;4073;42.626;25.386;2022-09-09T05:43:24;14.50;;;8.37;;
8060;SDS011;4073;42.626;25.386;2022-09-09T05:46:09;8.70;;;7.80;;
8060;SDS011;4073;42.626;25.386;2022-09-09T05:48:37;8.53;;;7.73;;
8060;SDS011;4073;42.626;25.386;2022-09-09T05:51:05;10.33;;;8.83;;
8060;SDS011;4073;42.626;25.386;2022-09-09T05:53:32;12.03;;;7.90;;
8060;SDS011;4073;42.626;25.386;2022-09-09T05:56:09;8.43;;;7.70;;
8060;SDS011;4073;42.626;25.386;2022-09-09T05:58:36;9.17;;;8.20;;
8060;SDS011;4073;42.626;25.386;2022-09-09T06:01:03;9.07;;;8.03;;
8060;SDS011;4073;42.626;25.386;2022-09-09T06:03:35;8.47;;;7.60;;
8060;SDS011;4073;42.626;25.386;2022-09-09T06:06:02;10.07;;;8.10;;
8060;SDS011;4073;42.626;25.386;2022-09-09T06:08:33;8.57;;;7.77;;
8060;SDS011;4073;42.626;25.386;2022-09-09T06:11:03;8.47;;;7.67;;
8060;SDS011;4073;42.626;25.386;2022-09-09T06:13:29;12.47;;;8.13;;
8060;SDS011;4073;42.626;25.386;2022-09-09T06:15:55;9.33;;;7.77;;
8060;SDS011;4073;42.626;25.386;2022-09-09T06:18:21;8.00;;;7.30;;
8060;SDS011;4073;42.626;25.386;2022-09-09T06:20:56;7.80;;;7.00;;
8060;SDS011;4073;42.626;25.386;2022-09-09T06:23:24;7.93;;;7.10;;
8060;SDS011;4073;42.626;25.386;2022-09-09T06:25:50;10.10;;;7.40;;
8060;SDS011;4073;42.626;25.386;2022-09-09T06:28:16;8.07;;;6.27;;
8060;SDS011;4073;42.626;25.386;2022-09-09T06:30:42;7.73;;;5.67;;
8060;SDS011;4073;42.626;25.386;2022-09-09T06:33:08;7.00;;;5.50;;
8060;SDS011;4073;42.626;25.386;2022-09-09T06:35:34;6.80;;;6.10;;
8060;SDS011;4073;42.626;25.386;2022-09-09T06:38:00;6.67;;;6.10;;
8060;SDS011;4073;42.626;25.386;2022-09-09T06:40:25;9.13;;;5.73;;
8060;SDS011;4073;42.626;25.386;2022-09-09T06:42:51;8.47;;;5.97;;
8060;SDS011;4073;42.626;25.386;2022-09-09T06:45:16;11.03;;;6.60;;
8060;SDS011;4073;42.626;25.386;2022-09-09T06:47:42;6.83;;;5.40;;
8060;SDS011;4073;42.626;25.386;2022-09-09T06:50:08;5.60;;;4.93;;
8060;SDS011;4073;42.626;25.386;2022-09-09T06:52:36;7.20;;;4.90;;
8060;SDS011;4073;42.626;25.386;2022-09-09T06:55:02;6.60;;;4.70;;
8060;SDS011;4073;42.626;25.386;2022-09-09T06:57:28;7.00;;;5.03;;
8060;SDS011;4073;42.626;25.386;2022-09-09T06:59:53;5.23;;;4.70;;
8060;SDS011;4073;42.626;25.386;2022-09-09T07:02:19;6.40;;;5.23;;
8060;SDS011;4073;42.626;25.386;2022-09-09T07:04:45;8.57;;;4.00;;
8060;SDS011;4073;42.626;25.386;2022-09-09T07:07:10;6.87;;;4.50;;
8060;SDS011;4073;42.626;25.386;2022-09-09T07:09:38;8.47;;;4.57;;
8060;SDS011;4073;42.626;25.386;2022-09-09T07:12:05;6.93;;;4.03;;
8060;SDS011;4073;42.626;25.386;2022-09-09T07:14:31;4.57;;;4.17;;
8060;SDS011;4073;42.626;25.386;2022-09-09T07:16:59;5.40;;;3.70;;
8060;SDS011;4073;42.626;25.386;2022-09-09T07:19:25;5.93;;;3.27;;
8060;SDS011;4073;42.626;25.386;2022-09-09T07:21:50;4.73;;;3.10;;
8060;SDS011;4073;42.626;25.386;2022-09-09T07:24:16;5.73;;;3.50;;
8060;SDS011;4073;42.626;25.386;2022-09-09T07:26:41;6.13;;;3.70;;
8060;SDS011;4073;42.626;25.386;2022-09-09T07:29:08;6.43;;;3.40;;
8060;SDS011;4073;42.626;25.386;2022-09-09T07:31:34;5.10;;;3.23;;
8060;SDS011;4073;42.626;25.386;2022-09-09T07:34:02;5.73;;;3.10;;
8060;SDS011;4073;42.626;25.386;2022-09-09T07:36:29;3.67;;;3.27;;
8060;SDS011;4073;42.626;25.386;2022-09-09T07:39:01;4.80;;;2.80;;
8060;SDS011;4073;42.626;25.386;2022-09-09T07:41:30;5.07;;;3.90;;
8060;SDS011;4073;42.626;25.386;2022-09-09T07:44:08;7.30;;;4.13;;
8060;SDS011;4073;42.626;25.386;2022-09-09T07:46:36;6.00;;;4.20;;
8060;SDS011;4073;42.626;25.386;2022-09-09T07:49:04;5.63;;;3.93;;
8060;SDS011;4073;42.626;25.386;2022-09-09T07:51:31;4.93;;;3.37;;
8060;SDS011;4073;42.626;25.386;2022-09-09T07:54:00;5.50;;;3.57;;
8060;SDS011;4073;42.626;25.386;2022-09-09T07:56:27;6.97;;;4.00;;
8060;SDS011;4073;42.626;25.386;2022-09-09T07:58:55;6.27;;;3.93;;
8060;SDS011;4073;42.626;25.386;2022-09-09T08:01:22;4.00;;;3.33;;
8060;SDS011;4073;42.626;25.386;2022-09-09T08:03:56;3.47;;;3.10;;
8060;SDS011;4073;42.626;25.386;2022-09-09T08:06:27;7.50;;;3.50;;
8060;SDS011;4073;42.626;25.386;2022-09-09T08:08:54;5.17;;;3.67;;
8060;SDS011;4073;42.626;25.386;2022-09-09T08:11:20;7.03;;;3.20;;
8060;SDS011;4073;42.626;25.386;2022-09-09T08:13:48;5.13;;;3.33;;
8060;SDS011;4073;42.626;25.386;2022-09-09T08:16:19;4.53;;;3.53;;
8060;SDS011;4073;42.626;25.386;2022-09-09T08:18:47;9.07;;;3.63;;
8060;SDS011;4073;42.626;25.386;2022-09-09T08:21:20;4.27;;;2.97;;
8060;SDS011;4073;42.626;25.386;2022-09-09T08:23:50;4.93;;;3.40;;
8060;SDS011;4073;42.626;25.386;2022-09-09T08:26:50;4.73;;;3.07;;
8060;SDS011;4073;42.626;25.386;2022-09-09T08:29:10;3.80;;;3.37;;
8060;SDS011;4073;42.626;25.386;2022-09-09T08:31:48;3.67;;;2.80;;
8060;SDS011;4073;42.626;25.386;2022-09-09T08:34:16;5.07;;;3.33;;
8060;SDS011;4073;42.626;25.386;2022-09-09T08:36:45;4.10;;;3.60;;
8060;SDS011;4073;42.626;25.386;2022-09-09T08:39:12;5.53;;;3.77;;
8060;SDS011;4073;42.626;25.386;2022-09-09T08:55:52;3.87;;;3.57;;
8060;SDS011;4073;42.626;25.386;2022-09-09T08:58:24;4.07;;;3.60;;
8060;SDS011;4073;42.626;25.386;2022-09-09T09:11:56;4.97;;;3.80;;
8060;SDS011;4073;42.626;25.386;2022-09-09T09:14:30;4.43;;;3.83;;
8060;SDS011;4073;42.626;25.386;2022-09-09T09:17:03;3.80;;;3.43;;
8060;SDS011;4073;42.626;25.386;2022-09-09T09:19:32;4.57;;;4.23;;
8060;SDS011;4073;42.626;25.386;2022-09-09T09:29:59;4.20;;;3.80;;
8060;SDS011;4073;42.626;25.386;2022-09-09T09:32:28;5.53;;;3.93;;
8060;SDS011;4073;42.626;25.386;2022-09-09T09:34:58;6.33;;;3.60;;
8060;SDS011;4073;42.626;25.386;2022-09-09T09:37:30;4.60;;;3.70;;
8060;SDS011;4073;42.626;25.386;2022-09-09T09:40:16;5.47;;;4.20;;
8060;SDS011;4073;42.626;25.386;2022-09-09T09:43:00;4.83;;;3.83;;
8060;SDS011;4073;42.626;25.386;2022-09-09T09:45:31;4.93;;;4.43;;
8060;SDS011;4073;42.626;25.386;2022-09-09T09:48:03;3.93;;;3.60;;
8060;SDS011;4073;42.626;25.386;2022-09-09T09:50:31;7.53;;;4.30;;
8060;SDS011;4073;42.626;25.386;2022-09-09T09:53:01;4.60;;;4.17;;
8060;SDS011;4073;42.626;25.386;2022-09-09T09:55:32;4.00;;;3.63;;
8060;SDS011;4073;42.626;25.386;2022-09-09T09:58:00;3.60;;;3.30;;
8060;SDS011;4073;42.626;25.386;2022-09-09T10:00:30;4.20;;;3.53;;
8060;SDS011;4073;42.626;25.386;2022-09-09T10:02:56;4.13;;;3.30;;
8060;SDS011;4073;42.626;25.386;2022-09-09T10:08:10;5.63;;;3.43;;
8060;SDS011;4073;42.626;25.386;2022-09-09T10:32:06;5.70;;;4.07;;
8060;SDS011;4073;42.626;25.386;2022-09-09T10:35:35;6.80;;;3.30;;
8060;SDS011;4073;42.626;25.386;2022-09-09T10:51:14;6.10;;;3.57;;
8060;SDS011;4073;42.626;25.386;2022-09-09T10:56:49;7.17;;;3.03;;
8060;SDS011;4073;42.626;25.386;2022-09-09T10:59:23;3.50;;;3.20;;
8060;SDS011;4073;42.626;25.386;2022-09-09T11:01:56;8.47;;;4.00;;
8060;SDS011;4073;42.626;25.386;2022-09-09T11:04:30;3.90;;;3.50;;
8060;SDS011;4073;42.626;25.386;2022-09-09T11:07:05;6.73;;;3.60;;
8060;SDS011;4073;42.626;25.386;2022-09-09T11:09:36;4.40;;;4.00;;
8060;SDS011;4073;42.626;25.386;2022-09-09T11:12:09;4.50;;;3.30;;
8060;SDS011;4073;42.626;25.386;2022-09-09T11:15:23;3.50;;;2.90;;
8060;SDS011;4073;42.626;25.386;2022-09-09T11:17:42;3.63;;;3.33;;
8060;SDS011;4073;42.626;25.386;2022-09-09T11:20:12;4.07;;;3.67;;
8060;SDS011;4073;42.626;25.386;2022-09-09T11:25:15;4.77;;;3.40;;
8060;SDS011;4073;42.626;25.386;2022-09-09T11:28:00;4.10;;;3.50;;
8060;SDS011;4073;42.626;25.386;2022-09-09T11:38:50;4.20;;;3.80;;
8060;SDS011;4073;42.626;25.386;2022-09-09T11:41:18;4.40;;;3.60;;
8060;SDS011;4073;42.626;25.386;2022-09-09T11:43:51;5.13;;;3.90;;
8060;SDS011;4073;42.626;25.386;2022-09-09T11:46:22;4.87;;;3.70;;
8060;SDS011;4073;42.626;25.386;2022-09-09T11:49:01;5.90;;;5.17;;
8060;SDS011;4073;42.626;25.386;2022-09-09T11:51:29;6.20;;;3.73;;
8060;SDS011;4073;42.626;25.386;2022-09-09T11:53:59;5.57;;;4.00;;
8060;SDS011;4073;42.626;25.386;2022-09-09T11:56:34;4.40;;;4.00;;
8060;SDS011;4073;42.626;25.386;2022-09-09T11:59:20;4.80;;;3.53;;
8060;SDS011;4073;42.626;25.386;2022-09-09T12:01:50;5.03;;;3.50;;
8060;SDS011;4073;42.626;25.386;2022-09-09T12:06:54;4.03;;;3.73;;
8060;SDS011;4073;42.626;25.386;2022-09-09T12:12:30;3.90;;;3.40;;
8060;SDS011;4073;42.626;25.386;2022-09-09T12:17:36;3.97;;;3.67;;
8060;SDS011;4073;42.626;25.386;2022-09-09T12:20:21;5.57;;;3.60;;
8060;SDS011;4073;42.626;25.386;2022-09-09T12:25:57;4.03;;;3.63;;
8060;SDS011;4073;42.626;25.386;2022-09-09T12:34:25;3.83;;;3.47;;
8060;SDS011;4073;42.626;25.386;2022-09-09T12:39:48;4.10;;;3.70;;
8060;SDS011;4073;42.626;25.386;2022-09-09T12:42:39;4.07;;;3.63;;
8060;SDS011;4073;42.626;25.386;2022-09-09T12:45:15;4.50;;;3.80;;
8060;SDS011;4073;42.626;25.386;2022-09-09T12:50:27;6.67;;;3.80;;
8060;SDS011;4073;42.626;25.386;2022-09-09T12:52:57;4.90;;;4.00;;
8060;SDS011;4073;42.626;25.386;2022-09-09T12:55:30;4.37;;;3.50;;
8060;SDS011;4073;42.626;25.386;2022-09-09T12:57:58;4.73;;;3.93;;
8060;SDS011;4073;42.626;25.386;2022-09-09T13:00:26;5.10;;;3.80;;
8060;SDS011;4073;42.626;25.386;2022-09-09T13:05:23;4.27;;;3.63;;
8060;SDS011;4073;42.626;25.386;2022-09-09T13:08:02;4.07;;;3.77;;
8060;SDS011;4073;42.626;25.386;2022-09-09T13:10:29;4.33;;;3.70;;
8060;SDS011;4073;42.626;25.386;2022-09-09T13:12:58;5.03;;;3.40;;
8060;SDS011;4073;42.626;25.386;2022-09-09T13:15:26;4.03;;;3.73;;
8060;SDS011;4073;42.626;25.386;2022-09-09T13:17:54;6.30;;;3.87;;
8060;SDS011;4073;42.626;25.386;2022-09-09T13:20:22;6.27;;;3.73;;
8060;SDS011;4073;42.626;25.386;2022-09-09T13:22:49;5.20;;;3.70;;
8060;SDS011;4073;42.626;25.386;2022-09-09T13:25:24;7.47;;;3.87;;
8060;SDS011;4073;42.626;25.386;2022-09-09T13:27:53;6.13;;;4.63;;
8060;SDS011;4073;42.626;25.386;2022-09-09T13:30:38;6.73;;;4.37;;
8060;SDS011;4073;42.626;25.386;2022-09-09T13:38:37;4.70;;;4.13;;
8060;SDS011;4073;42.626;25.386;2022-09-09T13:41:08;5.53;;;4.77;;
8060;SDS011;4073;42.626;25.386;2022-09-09T13:43:42;4.73;;;3.87;;
8060;SDS011;4073;42.626;25.386;2022-09-09T13:54:04;4.67;;;4.27;;
8060;SDS011;4073;42.626;25.386;2022-09-09T13:56:32;3.80;;;3.43;;
8060;SDS011;4073;42.626;25.386;2022-09-09T13:58:58;5.03;;;4.37;;
8060;SDS011;4073;42.626;25.386;2022-09-09T14:01:24;5.33;;;4.50;;
8060;SDS011;4073;42.626;25.386;2022-09-09T14:03:49;6.27;;;4.57;;
8060;SDS011;4073;42.626;25.386;2022-09-09T14:06:15;4.40;;;4.10;;
8060;SDS011;4073;42.626;25.386;2022-09-09T14:08:41;4.87;;;4.10;;
8060;SDS011;4073;42.626;25.386;2022-09-09T14:11:08;5.00;;;4.20;;
8060;SDS011;4073;42.626;25.386;2022-09-09T14:13:37;4.43;;;4.07;;
8060;SDS011;4073;42.626;25.386;2022-09-09T14:16:02;6.27;;;4.40;;
8060;SDS011;4073;42.626;25.386;2022-09-09T14:18:28;7.10;;;5.73;;
8060;SDS011;4073;42.626;25.386;2022-09-09T14:20:54;5.43;;;4.80;;
8060;SDS011;4073;42.626;25.386;2022-09-09T14:23:19;5.37;;;4.33;;
8060;SDS011;4073;42.626;25.386;2022-09-09T14:25:46;5.93;;;5.13;;
8060;SDS011;4073;42.626;25.386;2022-09-09T14:28:13;6.73;;;4.33;;
8060;SDS011;4073;42.626;25.386;2022-09-09T14:30:39;5.53;;;4.40;;
8060;SDS011;4073;42.626;25.386;2022-09-09T14:33:07;4.97;;;4.20;;
8060;SDS011;4073;42.626;25.386;2022-09-09T14:35:35;5.00;;;4.53;;
8060;SDS011;4073;42.626;25.386;2022-09-09T14:38:01;6.33;;;4.57;;
8060;SDS011;4073;42.626;25.386;2022-09-09T14:40:27;5.73;;;4.80;;
8060;SDS011;4073;42.626;25.386;2022-09-09T14:42:53;6.13;;;4.90;;
8060;SDS011;4073;42.626;25.386;2022-09-09T14:45:18;8.93;;;4.63;;
8060;SDS011;4073;42.626;25.386;2022-09-09T14:47:46;5.90;;;4.90;;
8060;SDS011;4073;42.626;25.386;2022-09-09T14:50:11;6.47;;;5.03;;
8060;SDS011;4073;42.626;25.386;2022-09-09T14:52:37;6.00;;;4.90;;
8060;SDS011;4073;42.626;25.386;2022-09-09T14:55:03;6.43;;;5.33;;
8060;SDS011;4073;42.626;25.386;2022-09-09T14:57:29;10.57;;;5.00;;
8060;SDS011;4073;42.626;25.386;2022-09-09T14:59:55;7.60;;;5.27;;
8060;SDS011;4073;42.626;25.386;2022-09-09T15:02:21;8.70;;;4.83;;
8060;SDS011;4073;42.626;25.386;2022-09-09T15:04:47;9.93;;;4.93;;
8060;SDS011;4073;42.626;25.386;2022-09-09T15:07:15;6.73;;;5.30;;
8060;SDS011;4073;42.626;25.386;2022-09-09T15:09:41;5.57;;;5.00;;
8060;SDS011;4073;42.626;25.386;2022-09-09T15:12:07;5.50;;;5.00;;
8060;SDS011;4073;42.626;25.386;2022-09-09T15:14:32;6.57;;;4.53;;
8060;SDS011;4073;42.626;25.386;2022-09-09T15:16:59;9.00;;;5.03;;
8060;SDS011;4073;42.626;25.386;2022-09-09T15:19:24;6.17;;;4.07;;
8060;SDS011;4073;42.626;25.386;2022-09-09T15:21:50;6.63;;;4.67;;
8060;SDS011;4073;42.626;25.386;2022-09-09T15:24:15;7.33;;;5.10;;
8060;SDS011;4073;42.626;25.386;2022-09-09T15:26:41;5.70;;;5.10;;
8060;SDS011;4073;42.626;25.386;2022-09-09T15:29:06;7.07;;;5.37;;
8060;SDS011;4073;42.626;25.386;2022-09-09T15:31:33;7.60;;;5.33;;
8060;SDS011;4073;42.626;25.386;2022-09-09T15:36:29;8.63;;;4.50;;
8060;SDS011;4073;42.626;25.386;2022-09-09T15:38:57;6.80;;;5.70;;
8060;SDS011;4073;42.626;25.386;2022-09-09T15:41:24;7.23;;;4.87;;
8060;SDS011;4073;42.626;25.386;2022-09-09T15:43:54;7.07;;;5.30;;
8060;SDS011;4073;42.626;25.386;2022-09-09T15:48:56;6.60;;;5.23;;
8060;SDS011;4073;42.626;25.386;2022-09-09T15:51:30;7.80;;;6.00;;
8060;SDS011;4073;42.626;25.386;2022-09-09T15:53:57;5.93;;;5.00;;
8060;SDS011;4073;42.626;25.386;2022-09-09T15:56:24;5.57;;;5.07;;
8060;SDS011;4073;42.626;25.386;2022-09-09T15:58:54;6.00;;;5.23;;
8060;SDS011;4073;42.626;25.386;2022-09-09T16:01:20;9.57;;;5.77;;
8060;SDS011;4073;42.626;25.386;2022-09-09T16:03:46;7.20;;;5.43;;
8060;SDS011;4073;42.626;25.386;2022-09-09T16:06:15;6.67;;;5.33;;
8060;SDS011;4073;42.626;25.386;2022-09-09T16:08:46;7.27;;;5.90;;
8060;SDS011;4073;42.626;25.386;2022-09-09T16:11:22;7.60;;;6.23;;
8060;SDS011;4073;42.626;25.386;2022-09-09T16:13:50;5.60;;;5.00;;
8060;SDS011;4073;42.626;25.386;2022-09-09T16:16:17;8.60;;;5.27;;
8060;SDS011;4073;42.626;25.386;2022-09-09T16:18:47;11.67;;;5.93;;
8060;SDS011;4073;42.626;25.386;2022-09-09T16:21:22;8.10;;;5.13;;
8060;SDS011;4073;42.626;25.386;2022-09-09T16:23:50;5.60;;;5.10;;
8060;SDS011;4073;42.626;25.386;2022-09-09T16:26:16;7.10;;;5.80;;
8060;SDS011;4073;42.626;25.386;2022-09-09T16:28:42;9.47;;;5.63;;
8060;SDS011;4073;42.626;25.386;2022-09-09T16:31:12;7.77;;;5.53;;
8060;SDS011;4073;42.626;25.386;2022-09-09T16:33:40;10.03;;;4.93;;
8060;SDS011;4073;42.626;25.386;2022-09-09T16:36:07;9.80;;;6.57;;
8060;SDS011;4073;42.626;25.386;2022-09-09T16:38:35;8.33;;;5.57;;
8060;SDS011;4073;42.626;25.386;2022-09-09T16:41:02;11.20;;;5.63;;
8060;SDS011;4073;42.626;25.386;2022-09-09T16:43:30;8.73;;;5.03;;
8060;SDS011;4073;42.626;25.386;2022-09-09T16:45:55;9.07;;;5.83;;
8060;SDS011;4073;42.626;25.386;2022-09-09T16:48:21;10.50;;;6.07;;
8060;SDS011;4073;42.626;25.386;2022-09-09T16:50:46;17.13;;;8.50;;
8060;SDS011;4073;42.626;25.386;2022-09-09T16:53:12;8.73;;;6.33;;
8060;SDS011;4073;42.626;25.386;2022-09-09T16:55:39;12.27;;;6.33;;
8060;SDS011;4073;42.626;25.386;2022-09-09T16:58:06;15.97;;;8.20;;
8060;SDS011;4073;42.626;25.386;2022-09-09T17:00:32;14.80;;;9.90;;
8060;SDS011;4073;42.626;25.386;2022-09-09T17:02:58;13.13;;;10.63;;
8060;SDS011;4073;42.626;25.386;2022-09-09T17:05:24;15.53;;;8.43;;
8060;SDS011;4073;42.626;25.386;2022-09-09T17:07:50;11.27;;;8.03;;
8060;SDS011;4073;42.626;25.386;2022-09-09T17:10:16;15.27;;;8.00;;
8060;SDS011;4073;42.626;25.386;2022-09-09T17:12:42;12.77;;;8.50;;
8060;SDS011;4073;42.626;25.386;2022-09-09T17:15:07;11.90;;;8.67;;
8060;SDS011;4073;42.626;25.386;2022-09-09T17:17:33;18.67;;;9.13;;
8060;SDS011;4073;42.626;25.386;2022-09-09T17:20:00;12.90;;;8.70;;
8060;SDS011;4073;42.626;25.386;2022-09-09T17:22:26;12.63;;;8.30;;
8060;SDS011;4073;42.626;25.386;2022-09-09T17:24:52;13.43;;;8.73;;
8060;SDS011;4073;42.626;25.386;2022-09-09T17:27:17;12.93;;;9.03;;
8060;SDS011;4073;42.626;25.386;2022-09-09T17:29:43;13.57;;;8.20;;
8060;SDS011;4073;42.626;25.386;2022-09-09T17:32:08;12.67;;;7.60;;
8060;SDS011;4073;42.626;25.386;2022-09-09T17:34:34;11.47;;;8.03;;
8060;SDS011;4073;42.626;25.386;2022-09-09T17:37:00;12.63;;;7.27;;
8060;SDS011;4073;42.626;25.386;2022-09-09T17:39:26;11.57;;;7.83;;
8060;SDS011;4073;42.626;25.386;2022-09-09T17:41:51;10.60;;;7.17;;
8060;SDS011;4073;42.626;25.386;2022-09-09T17:44:17;12.33;;;8.07;;
8060;SDS011;4073;42.626;25.386;2022-09-09T17:46:44;11.40;;;8.10;;
8060;SDS011;4073;42.626;25.386;2022-09-09T17:49:15;11.17;;;7.67;;
8060;SDS011;4073;42.626;25.386;2022-09-09T17:51:42;9.33;;;7.00;;
8060;SDS011;4073;42.626;25.386;2022-09-09T17:54:10;10.40;;;7.07;;
8060;SDS011;4073;42.626;25.386;2022-09-09T17:56:41;13.77;;;8.07;;
8060;SDS011;4073;42.626;25.386;2022-09-09T17:59:08;11.07;;;7.30;;
8060;SDS011;4073;42.626;25.386;2022-09-09T18:01:35;11.37;;;6.90;;
8060;SDS011;4073;42.626;25.386;2022-09-09T18:04:04;10.70;;;6.43;;